sensor_id;sensor_type;location;lat;lon;timestamp;pressure;altitude;pressure_sealevel;temperature;humidity
77590;BME280;66746;51.328;12.332;2023-05-10T00:01:35;99798.69;;;11.15;64.67
77590;BME280;66746;51.328;12.332;2023-05-10T00:04:02;99788.75;;;11.15;64.29
77590;BME280;66746;51.328;12.332;2023-05-10T00:06:29;99790.66;;;11.13;63.59
77590;BME280;66746;51.328;12.332;2023-05-10T00:08:55;99789.16;;;11.06;63.45
77590;BME280;66746;51.328;12.332;2023-05-10T00:11:21;99793.78;;;11.04;63.69
77590;BME280;66746;51.328;12.332;2023-05-10T00:13:48;99790.22;;;11.04;65.78
77590;BME280;66746;51.328;12.332;2023-05-10T00:16:16;99789.50;;;11.00;64.17
77590;BME280;66746;51.328;12.332;2023-05-10T00:18:43;99789.53;;;10.99;65.61
77590;BME280;66746;51.328;12.332;2023-05-10T00:21:09;99784.06;;;11.00;67.69
77590;BME280;66746;51.328;12.332;2023-05-10T00:23:35;99783.31;;;10.97;64.58
77590;BME280;66746;51.328;12.332;2023-05-10T00:26:02;99788.00;;;10.93;64.38
77590;BME280;66746;51.328;12.332;2023-05-10T00:28:28;99784.50;;;10.91;64.25
77590;BME280;66746;51.328;12.332;2023-05-10T00:30:56;99791.09;;;10.86;64.59
77590;BME280;66746;51.328;12.332;2023-05-10T00:33:23;99790.50;;;10.79;65.65
77590;BME280;66746;51.328;12.332;2023-05-10T00:35:50;99789.94;;;10.73;66.41
77590;BME280;66746;51.328;12.332;2023-05-10T00:38:16;99774.81;;;10.67;66.81
77590;BME280;66746;51.328;12.332;2023-05-10T00:40:43;99771.59;;;10.59;65.98
77590;BME280;66746;51.328;12.332;2023-05-10T00:43:17;99775.25;;;10.58;66.52
77590;BME280;66746;51.328;12.332;2023-05-10T00:45:44;99775.25;;;10.58;66.64
77590;BME280;66746;51.328;12.332;2023-05-10T00:48:10;99770.09;;;10.52;65.82
77590;BME280;66746;51.328;12.332;2023-05-10T00:50:38;99766.66;;;10.48;66.91
77590;BME280;66746;51.328;12.332;2023-05-10T00:53:05;99764.97;;;10.46;67.13
77590;BME280;66746;51.328;12.332;2023-05-10T00:55:32;99761.44;;;10.44;68.15
77590;BME280;66746;51.328;12.332;2023-05-10T00:57:59;99757.13;;;10.40;69.92
77590;BME280;66746;51.328;12.332;2023-05-10T01:00:25;99765.34;;;10.38;66.58
77590;BME280;66746;51.328;12.332;2023-05-10T01:02:53;99767.03;;;10.41;66.90
77590;BME280;66746;51.328;12.332;2023-05-10T01:05:21;99762.69;;;10.37;66.92
77590;BME280;66746;51.328;12.332;2023-05-10T01:07:49;99759.84;;;10.40;67.02
77590;BME280;66746;51.328;12.332;2023-05-10T01:10:15;99757.41;;;10.34;67.98
77590;BME280;66746;51.328;12.332;2023-05-10T01:12:45;99761.72;;;10.38;67.99
77590;BME280;66746;51.328;12.332;2023-05-10T01:15:14;99752.94;;;10.33;69.53
77590;BME280;66746;51.328;12.332;2023-05-10T01:17:45;99752.06;;;10.32;67.18
77590;BME280;66746;51.328;12.332;2023-05-10T01:20:14;99752.22;;;10.29;69.34
77590;BME280;66746;51.328;12.332;2023-05-10T01:26:07;99757.03;;;10.23;67.69
77590;BME280;66746;51.328;12.332;2023-05-10T01:29:09;99756.22;;;10.21;67.27
77590;BME280;66746;51.328;12.332;2023-05-10T01:34:43;99755.84;;;10.10;68.54
77590;BME280;66746;51.328;12.332;2023-05-10T01:37:17;99746.88;;;10.08;68.34
77590;BME280;66746;51.328;12.332;2023-05-10T01:39:49;99743.63;;;10.00;70.53
77590;BME280;66746;51.328;12.332;2023-05-10T01:42:25;99753.44;;;10.02;71.39
77590;BME280;66746;51.328;12.332;2023-05-10T01:44:57;99748.22;;;9.98;70.96
77590;BME280;66746;51.328;12.332;2023-05-10T01:47:31;99749.16;;;9.97;70.44
77590;BME280;66746;51.328;12.332;2023-05-10T01:50:03;99746.53;;;9.95;70.90
77590;BME280;66746;51.328;12.332;2023-05-10T01:52:33;99740.38;;;9.92;68.98
77590;BME280;66746;51.328;12.332;2023-05-10T01:55:05;99744.03;;;9.91;69.34
77590;BME280;66746;51.328;12.332;2023-05-10T01:57:35;99738.75;;;9.88;69.73
77590;BME280;66746;51.328;12.332;2023-05-10T02:00:04;99738.69;;;9.89;69.04
77590;BME280;66746;51.328;12.332;2023-05-10T02:02:45;99742.28;;;9.90;71.46
77590;BME280;66746;51.328;12.332;2023-05-10T02:05:16;99738.91;;;9.85;69.64
77590;BME280;66746;51.328;12.332;2023-05-10T02:07:44;99743.28;;;9.87;69.18
77590;BME280;66746;51.328;12.332;2023-05-10T02:10:11;99742.28;;;9.90;72.28
77590;BME280;66746;51.328;12.332;2023-05-10T02:12:42;99736.19;;;9.85;69.30
77590;BME280;66746;51.328;12.332;2023-05-10T02:15:11;99738.00;;;9.84;74.32
77590;BME280;66746;51.328;12.332;2023-05-10T02:17:39;99733.75;;;9.78;70.00
77590;BME280;66746;51.328;12.332;2023-05-10T02:20:09;99731.09;;;9.77;71.09
77590;BME280;66746;51.328;12.332;2023-05-10T02:22:36;99728.47;;;9.75;71.79
77590;BME280;66746;51.328;12.332;2023-05-10T02:25:04;99737.53;;;9.74;71.48
77590;BME280;66746;51.328;12.332;2023-05-10T02:27:33;99728.72;;;9.69;72.33
77590;BME280;66746;51.328;12.332;2023-05-10T02:30:01;99733.06;;;9.73;70.64
77590;BME280;66746;51.328;12.332;2023-05-10T02:32:28;99726.03;;;9.69;71.85
77590;BME280;66746;51.328;12.332;2023-05-10T02:34:56;99736.03;;;9.67;73.67
77590;BME280;66746;51.328;12.332;2023-05-10T02:37:25;99725.47;;;9.61;72.83
77590;BME280;66746;51.328;12.332;2023-05-10T02:39:53;99732.66;;;9.62;71.02
77590;BME280;66746;51.328;12.332;2023-05-10T02:42:24;99736.44;;;9.58;70.51
77590;BME280;66746;51.328;12.332;2023-05-10T02:44:53;99731.19;;;9.55;70.70
77590;BME280;66746;51.328;12.332;2023-05-10T02:47:20;99731.19;;;9.55;72.55
77590;BME280;66746;51.328;12.332;2023-05-10T02:49:47;99728.75;;;9.49;71.11
77590;BME280;66746;51.328;12.332;2023-05-10T02:52:16;99725.34;;;9.44;72.09
77590;BME280;66746;51.328;12.332;2023-05-10T02:54:49;99724.41;;;9.45;74.10
77590;BME280;66746;51.328;12.332;2023-05-10T02:57:17;99724.53;;;9.42;71.45
77590;BME280;66746;51.328;12.332;2023-05-10T02:59:47;99728.03;;;9.44;72.54
77590;BME280;66746;51.328;12.332;2023-05-10T03:02:14;99728.94;;;9.45;71.73
77590;BME280;66746;51.328;12.332;2023-05-10T03:04:41;99722.50;;;9.47;72.12
77590;BME280;66746;51.328;12.332;2023-05-10T03:07:07;99725.81;;;9.54;74.68
77590;BME280;66746;51.328;12.332;2023-05-10T03:09:34;99725.78;;;9.55;72.26
77590;BME280;66746;51.328;12.332;2023-05-10T03:12:06;99729.25;;;9.57;74.00
77590;BME280;66746;51.328;12.332;2023-05-10T03:14:45;99726.69;;;9.54;72.86
77590;BME280;66746;51.328;12.332;2023-05-10T03:17:19;99718.84;;;9.48;72.38
77590;BME280;66746;51.328;12.332;2023-05-10T03:19:53;99720.88;;;9.43;72.30
77590;BME280;66746;51.328;12.332;2023-05-10T03:22:24;99722.28;;;9.52;72.24
77590;BME280;66746;51.328;12.332;2023-05-10T03:24:53;99724.88;;;9.55;71.66
77590;BME280;66746;51.328;12.332;2023-05-10T03:27:25;99703.03;;;9.39;72.17
77590;BME280;66746;51.328;12.332;2023-05-10T03:29:53;99719.72;;;9.49;71.67
77590;BME280;66746;51.328;12.332;2023-05-10T03:32:21;99726.03;;;9.49;73.61
77590;BME280;66746;51.328;12.332;2023-05-10T03:34:48;99730.41;;;9.52;72.00
77590;BME280;66746;51.328;12.332;2023-05-10T03:37:14;99713.44;;;9.48;73.23
77590;BME280;66746;51.328;12.332;2023-05-10T03:39:41;99718.44;;;9.57;71.77
77590;BME280;66746;51.328;12.332;2023-05-10T03:42:09;99730.88;;;9.61;71.96
77590;BME280;66746;51.328;12.332;2023-05-10T03:44:36;99725.34;;;9.64;71.43
77590;BME280;66746;51.328;12.332;2023-05-10T03:47:03;99735.09;;;9.68;73.41
77590;BME280;66746;51.328;12.332;2023-05-10T03:49:30;99732.25;;;9.71;71.34
77590;BME280;66746;51.328;12.332;2023-05-10T03:51:56;99733.88;;;9.75;71.64
77590;BME280;66746;51.328;12.332;2023-05-10T03:54:22;99720.34;;;9.75;73.99
77590;BME280;66746;51.328;12.332;2023-05-10T03:56:49;99694.63;;;9.65;71.87
77590;BME280;66746;51.328;12.332;2023-05-10T03:59:17;99726.28;;;9.83;72.46
77590;BME280;66746;51.328;12.332;2023-05-10T04:01:44;99729.63;;;9.90;74.08
77590;BME280;66746;51.328;12.332;2023-05-10T04:04:11;99731.91;;;9.99;71.62
77590;BME280;66746;51.328;12.332;2023-05-10T04:06:38;99735.13;;;10.07;71.03
77590;BME280;66746;51.328;12.332;2023-05-10T04:09:04;99727.81;;;10.09;70.37
77590;BME280;66746;51.328;12.332;2023-05-10T04:11:31;99728.47;;;10.16;71.08
77590;BME280;66746;51.328;12.332;2023-05-10T04:13:57;99714.97;;;10.14;70.60
77590;BME280;66746;51.328;12.332;2023-05-10T04:16:24;99720.06;;;10.22;69.28
77590;BME280;66746;51.328;12.332;2023-05-10T04:18:52;99727.91;;;10.28;70.95
77590;BME280;66746;51.328;12.332;2023-05-10T04:21:18;99726.94;;;10.29;68.53
77590;BME280;66746;51.328;12.332;2023-05-10T04:23:45;99721.09;;;10.38;70.20
77590;BME280;66746;51.328;12.332;2023-05-10T04:26:12;99730.81;;;10.42;69.05
77590;BME280;66746;51.328;12.332;2023-05-10T04:28:38;99737.75;;;10.49;71.72
77590;BME280;66746;51.328;12.332;2023-05-10T04:31:06;99723.22;;;10.50;70.25
77590;BME280;66746;51.328;12.332;2023-05-10T04:33:33;99733.66;;;10.59;73.31
77590;BME280;66746;51.328;12.332;2023-05-10T04:36:01;99731.56;;;10.64;70.11
77590;BME280;66746;51.328;12.332;2023-05-10T04:38:28;99727.59;;;10.71;68.88
77590;BME280;66746;51.328;12.332;2023-05-10T04:41:03;99727.31;;;10.77;68.83
77590;BME280;66746;51.328;12.332;2023-05-10T04:43:30;99731.59;;;10.83;67.93
77590;BME280;66746;51.328;12.332;2023-05-10T04:45:56;99725.69;;;10.92;70.86
77590;BME280;66746;51.328;12.332;2023-05-10T04:48:23;99731.56;;;11.01;68.79
77590;BME280;66746;51.328;12.332;2023-05-10T04:50:49;99740.91;;;11.13;65.86
77590;BME280;66746;51.328;12.332;2023-05-10T04:53:17;99721.38;;;11.23;66.07
77590;BME280;66746;51.328;12.332;2023-05-10T04:55:43;99719.00;;;11.34;68.56
77590;BME280;66746;51.328;12.332;2023-05-10T04:58:09;99720.13;;;11.47;71.10
77590;BME280;66746;51.328;12.332;2023-05-10T05:00:36;99727.50;;;11.63;65.02
77590;BME280;66746;51.328;12.332;2023-05-10T05:03:03;99723.22;;;11.76;66.30
77590;BME280;66746;51.328;12.332;2023-05-10T05:05:29;99729.69;;;11.90;67.44
77590;BME280;66746;51.328;12.332;2023-05-10T05:07:56;99726.56;;;11.98;64.61
77590;BME280;66746;51.328;12.332;2023-05-10T05:10:23;99725.72;;;12.13;67.25
77590;BME280;66746;51.328;12.332;2023-05-10T05:12:51;99726.00;;;12.24;68.20
77590;BME280;66746;51.328;12.332;2023-05-10T05:15:18;99721.22;;;12.29;63.06
77590;BME280;66746;51.328;12.332;2023-05-10T05:17:44;99729.16;;;12.49;62.76
77590;BME280;66746;51.328;12.332;2023-05-10T05:20:11;99722.50;;;13.48;60.58
77590;BME280;66746;51.328;12.332;2023-05-10T05:22:37;99707.22;;;14.75;56.85
77590;BME280;66746;51.328;12.332;2023-05-10T05:25:05;99706.53;;;16.05;52.61
77590;BME280;66746;51.328;12.332;2023-05-10T05:27:33;99712.91;;;18.34;48.19
77590;BME280;66746;51.328;12.332;2023-05-10T05:29:59;99707.97;;;18.04;45.30
77590;BME280;66746;51.328;12.332;2023-05-10T05:32:26;99715.97;;;16.51;50.08
77590;BME280;66746;51.328;12.332;2023-05-10T05:34:52;99710.03;;;16.20;50.90
77590;BME280;66746;51.328;12.332;2023-05-10T05:37:19;99716.06;;;15.20;51.52
77590;BME280;66746;51.328;12.332;2023-05-10T05:39:47;99708.75;;;14.93;53.92
77590;BME280;66746;51.328;12.332;2023-05-10T05:42:13;99714.81;;;14.28;55.82
77590;BME280;66746;51.328;12.332;2023-05-10T05:44:41;99723.28;;;13.80;57.73
77590;BME280;66746;51.328;12.332;2023-05-10T05:47:09;99727.66;;;13.82;58.92
77590;BME280;66746;51.328;12.332;2023-05-10T05:49:36;99736.84;;;13.66;58.79
77590;BME280;66746;51.328;12.332;2023-05-10T05:52:03;99728.75;;;13.35;59.65
77590;BME280;66746;51.328;12.332;2023-05-10T05:54:33;99729.13;;;13.28;60.40
77590;BME280;66746;51.328;12.332;2023-05-10T05:57:24;99727.00;;;13.33;61.95
77590;BME280;66746;51.328;12.332;2023-05-10T05:59:52;99732.59;;;13.46;62.65
77590;BME280;66746;51.328;12.332;2023-05-10T06:02:19;99728.63;;;13.52;61.71
77590;BME280;66746;51.328;12.332;2023-05-10T06:04:45;99732.19;;;13.68;62.76
77590;BME280;66746;51.328;12.332;2023-05-10T06:07:12;99741.47;;;13.50;60.57
77590;BME280;66746;51.328;12.332;2023-05-10T06:09:38;99744.25;;;13.64;62.82
77590;BME280;66746;51.328;12.332;2023-05-10T06:12:05;99742.13;;;13.69;63.84
77590;BME280;66746;51.328;12.332;2023-05-10T06:14:31;99740.00;;;13.74;61.18
77590;BME280;66746;51.328;12.332;2023-05-10T06:16:59;99744.44;;;13.61;60.91
77590;BME280;66746;51.328;12.332;2023-05-10T06:19:26;99744.25;;;13.64;60.66
77590;BME280;66746;51.328;12.332;2023-05-10T06:21:52;99745.09;;;13.80;61.19
77590;BME280;66746;51.328;12.332;2023-05-10T06:24:19;99742.78;;;13.88;59.71
77590;BME280;66746;51.328;12.332;2023-05-10T06:26:45;99743.19;;;14.10;59.18
77590;BME280;66746;51.328;12.332;2023-05-10T06:29:12;99743.28;;;14.38;61.03
77590;BME280;66746;51.328;12.332;2023-05-10T06:31:38;99751.25;;;14.55;60.07
77590;BME280;66746;51.328;12.332;2023-05-10T06:34:06;99747.94;;;14.78;59.25
77590;BME280;66746;51.328;12.332;2023-05-10T06:36:33;99755.44;;;14.89;57.31
77590;BME280;66746;51.328;12.332;2023-05-10T06:38:59;99763.38;;;15.20;57.14
77590;BME280;66746;51.328;12.332;2023-05-10T06:41:26;99760.59;;;16.14;56.33
77590;BME280;66746;51.328;12.332;2023-05-10T06:43:52;99755.53;;;16.08;55.69
77590;BME280;66746;51.328;12.332;2023-05-10T06:46:19;99747.16;;;15.72;55.32
77590;BME280;66746;51.328;12.332;2023-05-10T06:48:45;99759.00;;;15.85;56.76
77590;BME280;66746;51.328;12.332;2023-05-10T06:51:13;99752.88;;;15.94;54.44
77590;BME280;66746;51.328;12.332;2023-05-10T06:53:40;99763.91;;;15.80;56.53
77590;BME280;66746;51.328;12.332;2023-05-10T06:56:06;99765.78;;;15.92;55.45
77590;BME280;66746;51.328;12.332;2023-05-10T06:58:33;99761.63;;;15.86;55.53
77590;BME280;66746;51.328;12.332;2023-05-10T07:01:03;99765.00;;;15.90;54.99
77590;BME280;66746;51.328;12.332;2023-05-10T07:03:29;99768.16;;;15.84;54.71
77590;BME280;66746;51.328;12.332;2023-05-10T07:06:00;99767.06;;;16.13;57.67
77590;BME280;66746;51.328;12.332;2023-05-10T07:08:27;99769.75;;;16.52;54.62
77590;BME280;66746;51.328;12.332;2023-05-10T07:10:59;99771.09;;;16.20;55.57
77590;BME280;66746;51.328;12.332;2023-05-10T07:13:25;99774.88;;;16.69;57.85
77590;BME280;66746;51.328;12.332;2023-05-10T07:15:52;99771.75;;;17.12;52.11
77590;BME280;66746;51.328;12.332;2023-05-10T07:18:19;99772.00;;;17.09;52.13
77590;BME280;66746;51.328;12.332;2023-05-10T07:20:45;99774.94;;;17.54;51.59
77590;BME280;66746;51.328;12.332;2023-05-10T07:23:11;99765.28;;;17.85;51.29
77590;BME280;66746;51.328;12.332;2023-05-10T07:25:44;99774.34;;;17.26;51.31
77590;BME280;66746;51.328;12.332;2023-05-10T07:28:14;99777.03;;;17.15;55.13
77590;BME280;66746;51.328;12.332;2023-05-10T07:30:41;99777.47;;;17.09;51.35
77590;BME280;66746;51.328;12.332;2023-05-10T07:33:08;99780.34;;;17.07;52.47
77590;BME280;66746;51.328;12.332;2023-05-10T07:35:35;99780.72;;;17.86;52.38
77590;BME280;66746;51.328;12.332;2023-05-10T07:38:04;99778.69;;;17.41;51.81
77590;BME280;66746;51.328;12.332;2023-05-10T07:40:33;99789.72;;;16.28;53.54
77590;BME280;66746;51.328;12.332;2023-05-10T07:43:04;99790.44;;;16.82;54.04
77590;BME280;66746;51.328;12.332;2023-05-10T07:45:31;99788.50;;;16.32;54.86
77590;BME280;66746;51.328;12.332;2023-05-10T07:47:57;99797.22;;;16.51;55.18
77590;BME280;66746;51.328;12.332;2023-05-10T07:50:24;99797.88;;;16.67;54.49
77590;BME280;66746;51.328;12.332;2023-05-10T07:52:50;99798.03;;;16.26;55.05
77590;BME280;66746;51.328;12.332;2023-05-10T07:55:18;99786.25;;;16.38;55.45
77590;BME280;66746;51.328;12.332;2023-05-10T07:57:44;99805.00;;;15.78;56.02
77590;BME280;66746;51.328;12.332;2023-05-10T08:00:18;99811.81;;;15.59;56.90
77590;BME280;66746;51.328;12.332;2023-05-10T08:02:49;99811.47;;;15.77;57.15
77590;BME280;66746;51.328;12.332;2023-05-10T08:05:16;99809.44;;;15.67;58.39
77590;BME280;66746;51.328;12.332;2023-05-10T08:07:45;99817.59;;;15.81;58.50
77590;BME280;66746;51.328;12.332;2023-05-10T08:10:12;99817.66;;;15.93;60.01
77590;BME280;66746;51.328;12.332;2023-05-10T08:12:40;99811.34;;;15.79;57.61
77590;BME280;66746;51.328;12.332;2023-05-10T08:15:10;99809.19;;;15.84;58.44
77590;BME280;66746;51.328;12.332;2023-05-10T08:17:47;99821.97;;;15.57;58.48
77590;BME280;66746;51.328;12.332;2023-05-10T08:20:16;99810.88;;;15.46;60.73
77590;BME280;66746;51.328;12.332;2023-05-10T08:22:43;99825.44;;;15.18;60.66
77590;BME280;66746;51.328;12.332;2023-05-10T08:25:09;99832.47;;;15.08;61.70
77590;BME280;66746;51.328;12.332;2023-05-10T08:27:36;99845.63;;;15.44;66.36
77590;BME280;66746;51.328;12.332;2023-05-10T08:30:02;99836.84;;;15.39;62.54
77590;BME280;66746;51.328;12.332;2023-05-10T08:32:29;99842.41;;;15.23;62.17
77590;BME280;66746;51.328;12.332;2023-05-10T08:34:57;99839.88;;;15.06;62.74
77590;BME280;66746;51.328;12.332;2023-05-10T08:37:23;99850.34;;;14.99;63.34
77590;BME280;66746;51.328;12.332;2023-05-10T08:39:50;99847.00;;;14.80;64.97
77590;BME280;66746;51.328;12.332;2023-05-10T08:42:19;99845.66;;;14.87;66.40
77590;BME280;66746;51.328;12.332;2023-05-10T08:44:48;99853.06;;;14.99;66.27
77590;BME280;66746;51.328;12.332;2023-05-10T08:47:16;99865.72;;;15.15;65.70
77590;BME280;66746;51.328;12.332;2023-05-10T08:49:47;99861.06;;;14.31;67.77
77590;BME280;66746;51.328;12.332;2023-05-10T08:52:18;99873.50;;;14.64;70.08
77590;BME280;66746;51.328;12.332;2023-05-10T08:54:44;99873.09;;;14.56;68.06
77590;BME280;66746;51.328;12.332;2023-05-10T08:57:11;99880.03;;;14.32;69.18
77590;BME280;66746;51.328;12.332;2023-05-10T08:59:41;99872.06;;;13.98;71.65
77590;BME280;66746;51.328;12.332;2023-05-10T09:02:20;99878.97;;;13.89;72.74
77590;BME280;66746;51.328;12.332;2023-05-10T09:04:50;99888.91;;;13.44;75.53
77590;BME280;66746;51.328;12.332;2023-05-10T09:07:21;99888.78;;;13.29;78.05
77590;BME280;66746;51.328;12.332;2023-05-10T09:09:50;99894.22;;;13.14;78.46
77590;BME280;66746;51.328;12.332;2023-05-10T09:12:19;99892.22;;;13.00;80.83
77590;BME280;66746;51.328;12.332;2023-05-10T09:14:46;99891.44;;;12.98;80.38
77590;BME280;66746;51.328;12.332;2023-05-10T09:17:15;99903.28;;;12.97;81.87
77590;BME280;66746;51.328;12.332;2023-05-10T09:19:44;99899.72;;;12.80;82.02
77590;BME280;66746;51.328;12.332;2023-05-10T09:22:12;99899.25;;;12.72;81.90
77590;BME280;66746;51.328;12.332;2023-05-10T09:24:43;99899.03;;;12.59;83.63
77590;BME280;66746;51.328;12.332;2023-05-10T09:27:09;99907.97;;;12.61;83.36
77590;BME280;66746;51.328;12.332;2023-05-10T09:29:39;99906.38;;;12.57;83.15
77590;BME280;66746;51.328;12.332;2023-05-10T09:32:08;99919.03;;;12.58;84.35
77590;BME280;66746;51.328;12.332;2023-05-10T09:34:38;99908.63;;;12.66;84.92
77590;BME280;66746;51.328;12.332;2023-05-10T09:37:05;99910.66;;;12.63;84.69
77590;BME280;66746;51.328;12.332;2023-05-10T09:39:33;99922.25;;;12.66;85.06
77590;BME280;66746;51.328;12.332;2023-05-10T09:42:03;99920.94;;;12.73;85.61
77590;BME280;66746;51.328;12.332;2023-05-10T09:44:32;99920.53;;;12.81;85.93
77590;BME280;66746;51.328;12.332;2023-05-10T09:46:58;99922.38;;;12.80;84.01
77590;BME280;66746;51.328;12.332;2023-05-10T09:49:25;99927.75;;;12.82;84.79
77590;BME280;66746;51.328;12.332;2023-05-10T09:52:02;99924.41;;;12.92;86.14
77590;BME280;66746;51.328;12.332;2023-05-10T09:54:38;99927.78;;;12.97;85.87
77590;BME280;66746;51.328;12.332;2023-05-10T09:57:24;99919.50;;;12.83;85.27
77590;BME280;66746;51.328;12.332;2023-05-10T10:00:01;99924.59;;;12.89;85.37
77590;BME280;66746;51.328;12.332;2023-05-10T10:06:06;99924.88;;;13.00;87.90
77590;BME280;66746;51.328;12.332;2023-05-10T10:09:07;99933.56;;;12.91;86.24
77590;BME280;66746;51.328;12.332;2023-05-10T10:11:41;99929.53;;;12.98;86.43
77590;BME280;66746;51.328;12.332;2023-05-10T10:14:11;99922.44;;;13.13;87.90
77590;BME280;66746;51.328;12.332;2023-05-10T10:17:07;99915.28;;;13.10;86.87
77590;BME280;66746;51.328;12.332;2023-05-10T10:20:41;99920.78;;;13.26;87.38
77590;BME280;66746;51.328;12.332;2023-05-10T10:23:28;99942.19;;;13.16;88.03
77590;BME280;66746;51.328;12.332;2023-05-10T10:25:57;99945.94;;;13.14;86.63
77590;BME280;66746;51.328;12.332;2023-05-10T10:28:30;99941.84;;;13.22;87.63
77590;BME280;66746;51.328;12.332;2023-05-10T10:31:17;99943.72;;;13.38;89.12
77590;BME280;66746;51.328;12.332;2023-05-10T10:33:59;99935.31;;;13.42;88.65
77590;BME280;66746;51.328;12.332;2023-05-10T10:36:49;99938.91;;;13.43;88.42
77590;BME280;66746;51.328;12.332;2023-05-10T10:39:41;99945.97;;;13.62;89.28
77590;BME280;66746;51.328;12.332;2023-05-10T10:42:30;99935.91;;;13.63;88.56
77590;BME280;66746;51.328;12.332;2023-05-10T10:45:33;99938.28;;;13.38;87.25
77590;BME280;66746;51.328;12.332;2023-05-10T10:48:28;99925.09;;;13.30;88.52
77590;BME280;66746;51.328;12.332;2023-05-10T10:51:15;99949.47;;;13.16;88.61
77590;BME280;66746;51.328;12.332;2023-05-10T10:53:56;99945.44;;;13.07;89.36
77590;BME280;66746;51.328;12.332;2023-05-10T10:57:17;99930.00;;;13.23;91.27
77590;BME280;66746;51.328;12.332;2023-05-10T11:04:19;99940.53;;;13.29;89.59
77590;BME280;66746;51.328;12.332;2023-05-10T11:07:21;99945.66;;;13.36;90.52
77590;BME280;66746;51.328;12.332;2023-05-10T11:09:50;99950.25;;;13.51;91.47
77590;BME280;66746;51.328;12.332;2023-05-10T11:12:19;99953.59;;;13.56;90.81
77590;BME280;66746;51.328;12.332;2023-05-10T11:15:25;99937.88;;;13.61;91.45
77590;BME280;66746;51.328;12.332;2023-05-10T11:18:38;99957.81;;;13.77;90.39
77590;BME280;66746;51.328;12.332;2023-05-10T11:21:49;99957.66;;;13.64;90.67
77590;BME280;66746;51.328;12.332;2023-05-10T11:24:27;99951.31;;;13.64;92.01
77590;BME280;66746;51.328;12.332;2023-05-10T11:26:59;99960.84;;;13.72;91.84
77590;BME280;66746;51.328;12.332;2023-05-10T11:29:26;99965.41;;;13.72;91.71
77590;BME280;66746;51.328;12.332;2023-05-10T11:31:57;99952.81;;;13.69;90.92
77590;BME280;66746;51.328;12.332;2023-05-10T11:34:25;99951.41;;;13.62;90.99
77590;BME280;66746;51.328;12.332;2023-05-10T11:37:06;99963.00;;;13.66;91.89
77590;BME280;66746;51.328;12.332;2023-05-10T11:39:35;99960.66;;;13.91;92.82
77590;BME280;66746;51.328;12.332;2023-05-10T11:42:03;99962.78;;;13.86;92.51
77590;BME280;66746;51.328;12.332;2023-05-10T11:44:30;99974.91;;;13.96;92.70
77590;BME280;66746;51.328;12.332;2023-05-10T11:46:59;99973.66;;;14.17;93.06
77590;BME280;66746;51.328;12.332;2023-05-10T11:49:27;99965.91;;;14.25;92.74
77590;BME280;66746;51.328;12.332;2023-05-10T11:52:09;99967.66;;;14.42;94.98
77590;BME280;66746;51.328;12.332;2023-05-10T11:54:45;99973.75;;;14.47;92.02
77590;BME280;66746;51.328;12.332;2023-05-10T11:57:14;99983.06;;;14.72;91.61
77590;BME280;66746;51.328;12.332;2023-05-10T11:59:55;99972.94;;;14.74;91.91
77590;BME280;66746;51.328;12.332;2023-05-10T12:02:33;99980.38;;;14.86;92.50
77590;BME280;66746;51.328;12.332;2023-05-10T12:05:02;99982.31;;;14.84;90.93
77590;BME280;66746;51.328;12.332;2023-05-10T12:07:36;99970.47;;;14.99;91.75
77590;BME280;66746;51.328;12.332;2023-05-10T12:10:09;99973.38;;;14.96;91.55
77590;BME280;66746;51.328;12.332;2023-05-10T12:12:47;99981.25;;;14.87;91.50
77590;BME280;66746;51.328;12.332;2023-05-10T12:15:22;99974.97;;;14.71;92.20
77590;BME280;66746;51.328;12.332;2023-05-10T12:17:53;99969.88;;;14.94;92.90
77590;BME280;66746;51.328;12.332;2023-05-10T12:20:21;99983.47;;;14.66;91.65
77590;BME280;66746;51.328;12.332;2023-05-10T12:23:07;99987.50;;;14.89;92.00
77590;BME280;66746;51.328;12.332;2023-05-10T12:25:36;99980.53;;;14.99;92.40
77590;BME280;66746;51.328;12.332;2023-05-10T12:28:07;99984.56;;;14.92;90.98
77590;BME280;66746;51.328;12.332;2023-05-10T12:30:41;99989.44;;;15.17;91.87
77590;BME280;66746;51.328;12.332;2023-05-10T12:33:19;99985.81;;;15.16;92.63
77590;BME280;66746;51.328;12.332;2023-05-10T12:35:53;99995.56;;;15.20;92.00
77590;BME280;66746;51.328;12.332;2023-05-10T12:38:35;99997.78;;;15.14;91.35
77590;BME280;66746;51.328;12.332;2023-05-10T12:41:11;100004.81;;;15.03;90.80
77590;BME280;66746;51.328;12.332;2023-05-10T12:43:44;99988.59;;;15.00;91.15
77590;BME280;66746;51.328;12.332;2023-05-10T12:46:17;100003.34;;;15.12;90.74
77590;BME280;66746;51.328;12.332;2023-05-10T12:48:44;100003.94;;;15.03;90.56
77590;BME280;66746;51.328;12.332;2023-05-10T12:51:25;99997.72;;;15.15;91.90
77590;BME280;66746;51.328;12.332;2023-05-10T12:54:07;99999.00;;;15.38;92.39
77590;BME280;66746;51.328;12.332;2023-05-10T12:56:34;100007.19;;;15.24;92.36
77590;BME280;66746;51.328;12.332;2023-05-10T12:59:03;100003.41;;;14.96;89.62
77590;BME280;66746;51.328;12.332;2023-05-10T13:01:32;99996.94;;;15.13;92.19
77590;BME280;66746;51.328;12.332;2023-05-10T13:04:06;100011.47;;;15.28;90.74
77590;BME280;66746;51.328;12.332;2023-05-10T13:06:42;99998.56;;;15.16;90.49
77590;BME280;66746;51.328;12.332;2023-05-10T13:09:27;100005.06;;;15.29;91.91
77590;BME280;66746;51.328;12.332;2023-05-10T13:12:02;100000.78;;;15.39;91.98
77590;BME280;66746;51.328;12.332;2023-05-10T13:14:32;100007.25;;;15.52;90.85
77590;BME280;66746;51.328;12.332;2023-05-10T13:17:00;100001.84;;;15.36;89.04
77590;BME280;66746;51.328;12.332;2023-05-10T13:19:50;100003.66;;;15.22;89.79
77590;BME280;66746;51.328;12.332;2023-05-10T13:22:19;100009.66;;;14.98;89.92
77590;BME280;66746;51.328;12.332;2023-05-10T13:25:07;100005.75;;;14.88;90.52